Terminal Aerodrome Forecast
Issued by NWS

Home | Current Version | Previous Version | Text Only | Print | Product List | Glossary On
Versions: 1 2 3 4 5 6 7 8 9 10 11 12 13 14 15 16
000
FTUS41 KBTV 281133
TAFMPV
TAF
KMPV 281133Z 2812/2912 21009G18KT P6SM -SHRA SCT015 BKN025 OVC035
      TEMPO 2812/2816 VRB06KT 5SM -SHRA BR BKN015 OVC025
     FM281700 30008KT P6SM SCT025 BKN040
     FM290300 29005KT P6SM SCT035 BKN045=

USA.gov is the U.S. government's official web portal to all federal, state and local government web resources and services.